Time;durP1;ratioP1;P1;durP2;ratioP2;P2;SDS_P1;SDS_P2;PMS_P1;PMS_P2;Temp;Humidity;BMP_temperature;BMP_pressure;BME280_temperature;BME280_humidity;BME280_pressure;Samples;Min_cycle;Max_cycle;Signal;HPM_P1;HPM_P2
2022/08/18 00:02:27;;;;;;;8.63;4.92;;;25.90;99.90;;;;;;1954631;73;21118;-83
2022/08/18 00:04:59;;;;;;;10.18;4.90;;;26.00;99.90;;;;;;1955893;73;21049;-83
2022/08/18 00:07:32;;;;;;;11.40;5.37;;;26.00;99.90;;;;;;1943254;73;21081;-82
2022/08/18 00:10:04;;;;;;;9.60;5.00;;;26.00;99.90;;;;;;1938722;72;21192;-82
2022/08/18 00:12:39;;;;;;;9.23;4.83;;;26.00;99.90;;;;;;1950271;73;21114;-83
2022/08/18 00:15:12;;;;;;;8.10;4.90;;;26.00;99.90;;;;;;1952040;73;21114;-83
2022/08/18 00:17:43;;;;;;;6.92;4.05;;;26.00;99.90;;;;;;1946841;73;21142;-82
2022/08/18 00:20:17;;;;;;;6.55;4.58;;;26.10;99.90;;;;;;1937952;73;21151;-83
2022/08/18 00:22:48;;;;;;;12.75;4.72;;;26.10;99.90;;;;;;1946128;73;21119;-82
2022/08/18 00:25:21;;;;;;;9.38;4.53;;;26.10;99.90;;;;;;1940225;73;21049;-83
2022/08/18 00:27:52;;;;;;;9.05;4.50;;;26.10;99.90;;;;;;1949211;73;21407;-84
2022/08/18 00:30:23;;;;;;;7.97;4.70;;;26.20;99.90;;;;;;1948242;73;21147;-84
2022/08/18 00:32:56;;;;;;;8.45;4.78;;;26.20;99.90;;;;;;1942062;73;21149;-83
2022/08/18 00:35:28;;;;;;;5.67;4.28;;;26.20;99.90;;;;;;1948317;73;21181;-84
2022/08/18 00:38:01;;;;;;;8.93;4.10;;;26.20;99.90;;;;;;1949121;73;21041;-85
2022/08/18 00:40:35;;;;;;;7.42;4.28;;;26.20;99.90;;;;;;1939665;73;21174;-83
2022/08/18 00:43:09;;;;;;;8.83;4.22;;;26.20;99.90;;;;;;1951655;73;21120;-84
2022/08/18 00:45:42;;;;;;;7.65;4.25;;;26.30;99.90;;;;;;1952896;73;21143;-83
2022/08/18 00:48:14;;;;;;;8.60;3.92;;;26.30;99.90;;;;;;1944110;73;21083;-83
2022/08/18 00:50:47;;;;;;;9.45;3.92;;;26.30;99.90;;;;;;1886784;75;21147;-83
2022/08/18 00:53:21;;;;;;;8.05;4.00;;;26.30;99.90;;;;;;1919377;73;21063;-84
2022/08/18 00:55:53;;;;;;;8.90;4.00;;;26.40;99.90;;;;;;1938275;73;21041;-83
2022/08/18 00:58:26;;;;;;;8.85;4.75;;;26.40;99.90;;;;;;1921107;73;21093;-83
2022/08/18 01:00:58;;;;;;;11.53;4.20;;;26.40;99.90;;;;;;1911672;73;21128;-84
2022/08/18 01:03:32;;;;;;;5.95;3.75;;;26.50;99.90;;;;;;1949008;73;21635;-83
2022/08/18 01:06:06;;;;;;;8.43;4.05;;;26.50;99.90;;;;;;1944325;74;21178;-84
2022/08/18 01:08:39;;;;;;;7.40;3.75;;;26.60;99.90;;;;;;1935875;74;21131;-83
2022/08/18 01:11:10;;;;;;;8.03;3.62;;;26.60;99.90;;;;;;1942880;73;21591;-82
2022/08/18 01:13:43;;;;;;;6.58;3.85;;;26.60;99.90;;;;;;1940142;73;21073;-83
2022/08/18 01:24:02;;;;;;;7.70;3.85;;;26.70;99.90;;;;;;1938263;73;21155;-83
2022/08/18 01:26:30;;;;;;;9.15;4.33;;;26.80;99.90;;;;;;1936967;73;21241;-83
2022/08/18 01:29:15;;;;;;;7.53;3.92;;;26.80;99.90;;;;;;1941293;73;21189;-86
2022/08/18 01:32:26;;;;;;;6.80;3.83;;;26.90;99.90;;;;;;1942924;73;21681;-83
2022/08/18 01:34:35;;;;;;;9.38;4.35;;;26.90;99.90;;;;;;1938421;74;21149;-82
2022/08/18 01:37:08;;;;;;;7.50;3.98;;;26.90;99.90;;;;;;1893800;74;21127;-83
2022/08/18 01:39:39;;;;;;;6.33;3.85;;;26.90;99.90;;;;;;1885116;74;21123;-84
2022/08/18 01:42:17;;;;;;;6.85;3.90;;;26.90;99.90;;;;;;1871110;74;21160;-83
2022/08/18 01:44:50;;;;;;;9.38;4.33;;;27.00;99.90;;;;;;1882794;75;21143;-83
2022/08/18 01:47:20;;;;;;;7.28;3.87;;;27.00;99.90;;;;;;1943597;74;21591;-83
2022/08/18 01:49:52;;;;;;;9.75;3.85;;;27.00;99.90;;;;;;1945896;73;21152;-84
2022/08/18 01:52:24;;;;;;;7.03;3.35;;;27.00;99.90;;;;;;1914327;73;21158;-84
2022/08/18 01:54:56;;;;;;;10.35;4.12;;;27.00;99.90;;;;;;1921844;74;21153;-83
2022/08/18 01:57:28;;;;;;;10.60;3.77;;;27.10;99.90;;;;;;1941751;73;21116;-84
2022/08/18 01:59:59;;;;;;;6.72;3.98;;;27.10;99.90;;;;;;1948348;73;21111;-84
2022/08/18 02:02:32;;;;;;;6.42;3.62;;;27.10;99.90;;;;;;1917953;74;21066;-83
2022/08/18 02:05:06;;;;;;;9.03;4.03;;;27.20;99.90;;;;;;1916136;74;21230;-84
2022/08/18 02:07:38;;;;;;;9.85;4.35;;;27.30;99.90;;;;;;1901047;74;21524;-85
2022/08/18 02:10:11;;;;;;;7.42;4.20;;;27.30;99.90;;;;;;1903988;75;21114;-85
2022/08/18 02:12:44;;;;;;;8.30;3.22;;;27.40;99.90;;;;;;1908690;75;21600;-83
2022/08/18 02:15:15;;;;;;;8.08;3.77;;;27.50;99.90;;;;;;1908774;75;21171;-83
2022/08/18 02:17:47;;;;;;;9.35;3.65;;;27.60;99.90;;;;;;1908248;75;21771;-85
2022/08/18 02:20:20;;;;;;;6.42;3.70;;;27.60;99.90;;;;;;1905227;75;21158;-85
2022/08/18 02:22:51;;;;;;;7.85;3.70;;;27.60;99.90;;;;;;1883829;75;21159;-84
2022/08/18 02:25:22;;;;;;;6.47;3.45;;;27.70;99.90;;;;;;1926178;74;21174;-83
2022/08/18 02:27:53;;;;;;;5.45;3.65;;;27.70;99.90;;;;;;1933136;73;21103;-84
2022/08/18 02:30:24;;;;;;;8.95;3.52;;;27.70;99.90;;;;;;1859736;76;21167;-84
2022/08/18 02:32:59;;;;;;;5.65;3.67;;;27.80;99.90;;;;;;1882656;75;21108;-85
2022/08/18 02:35:30;;;;;;;6.28;3.00;;;27.80;99.90;;;;;;1927027;73;21186;-84
2022/08/18 02:38:05;;;;;;;7.22;3.37;;;27.90;99.90;;;;;;1931181;73;21596;-84
2022/08/18 02:40:37;;;;;;;6.75;3.30;;;27.90;99.90;;;;;;1940364;73;21710;-85
2022/08/18 02:43:09;;;;;;;7.78;3.42;;;27.90;99.90;;;;;;1942510;73;21204;-84
2022/08/18 02:45:41;;;;;;;5.08;3.08;;;27.90;99.90;;;;;;1945680;73;21240;-85
2022/08/18 02:48:12;;;;;;;6.12;3.98;;;27.90;99.90;;;;;;1946119;73;21240;-85
2022/08/18 02:50:46;;;;;;;6.97;3.67;;;27.90;99.90;;;;;;1935117;74;21126;-85
2022/08/18 02:53:20;;;;;;;5.25;3.60;;;28.00;99.90;;;;;;1949173;73;21223;-84
2022/08/18 02:55:53;;;;;;;7.58;3.50;;;28.00;99.90;;;;;;1932692;73;21177;-84
2022/08/18 02:58:23;;;;;;;7.70;3.92;;;28.10;99.90;;;;;;1913943;74;21520;-84
2022/08/18 03:00:56;;;;;;;10.38;3.92;;;28.20;99.90;;;;;;1932353;74;21185;-84
2022/08/18 03:03:27;;;;;;;9.33;3.33;;;28.40;99.90;;;;;;1939100;74;21601;-85
2022/08/18 03:05:58;;;;;;;7.05;3.62;;;28.60;99.90;;;;;;1936364;73;21563;-84
2022/08/18 03:08:31;;;;;;;10.48;3.83;;;28.70;99.90;;;;;;1944231;73;21143;-85
2022/08/18 03:11:02;;;;;;;7.55;3.62;;;28.80;99.90;;;;;;1923664;73;21093;-85
2022/08/18 03:13:33;;;;;;;7.33;3.17;;;28.90;99.90;;;;;;1920443;73;21076;-84
2022/08/18 03:16:04;;;;;;;7.22;3.33;;;29.10;99.90;;;;;;1927036;74;21166;-85
2022/08/18 03:18:35;;;;;;;5.65;3.45;;;29.20;99.90;;;;;;1915963;74;21583;-83
2022/08/18 03:21:09;;;;;;;6.60;3.40;;;29.20;99.90;;;;;;1941455;73;21110;-83
2022/08/18 03:23:43;;;;;;;6.62;3.27;;;29.20;99.90;;;;;;1949325;73;21174;-84
2022/08/18 03:26:16;;;;;;;6.87;3.27;;;29.20;99.90;;;;;;1946372;73;21114;-85
2022/08/18 03:28:50;;;;;;;5.95;3.20;;;29.20;99.90;;;;;;1950706;73;21106;-85
2022/08/18 03:31:24;;;;;;;7.40;3.00;;;29.10;99.90;;;;;;1950770;73;21218;-83
2022/08/18 03:33:58;;;;;;;5.95;3.10;;;29.10;99.90;;;;;;1940422;73;21139;-84
2022/08/18 03:36:32;;;;;;;5.67;3.70;;;29.00;99.90;;;;;;1936204;73;21127;-84
2022/08/18 03:39:05;;;;;;;6.50;3.92;;;29.00;99.90;;;;;;1941946;73;21130;-84
2022/08/18 03:41:38;;;;;;;9.30;4.17;;;28.90;99.90;;;;;;1958740;73;21113;-84
2022/08/18 03:44:13;;;;;;;7.65;3.10;;;28.90;99.90;;;;;;1942817;73;21203;-86
2022/08/18 03:46:49;;;;;;;5.95;2.80;;;29.10;99.90;;;;;;1940340;73;21190;-85
2022/08/18 03:49:21;;;;;;;6.20;3.50;;;29.20;99.90;;;;;;1965422;73;21174;-84
2022/08/18 03:51:52;;;;;;;8.58;3.77;;;29.40;99.90;;;;;;1947070;73;21100;-83
2022/08/18 03:54:23;;;;;;;5.80;3.12;;;29.50;99.90;;;;;;1953807;73;21064;-84
2022/08/18 03:56:54;;;;;;;8.08;3.17;;;29.70;99.90;;;;;;1946986;73;21109;-83
2022/08/18 03:59:26;;;;;;;5.47;2.72;;;29.80;99.90;;;;;;1937695;73;21233;-83
2022/08/18 04:01:57;;;;;;;6.37;3.25;;;29.80;99.90;;;;;;1946865;73;21136;-83
2022/08/18 04:04:29;;;;;;;6.80;3.02;;;29.80;99.90;;;;;;1946730;74;21785;-84
2022/08/18 04:07:03;;;;;;;9.93;2.95;;;29.80;99.90;;;;;;1939129;73;21140;-83
2022/08/18 04:09:37;;;;;;;6.37;3.67;;;29.80;99.90;;;;;;1880220;76;21550;-81
2022/08/18 04:12:14;;;;;;;7.30;3.02;;;29.90;99.90;;;;;;1880225;75;21158;-82
2022/08/18 04:14:46;;;;;;;4.78;2.87;;;30.00;99.90;;;;;;1925166;73;21130;-83
2022/08/18 04:17:23;;;;;;;6.45;2.70;;;30.10;99.90;;;;;;1887299;75;21167;-84
2022/08/18 04:19:55;;;;;;;5.85;2.95;;;30.30;99.90;;;;;;1875077;76;21150;-84
2022/08/18 04:22:26;;;;;;;6.53;3.45;;;30.40;99.80;;;;;;1885761;75;21149;-85
2022/08/18 04:24:57;;;;;;;7.53;3.05;;;30.50;99.50;;;;;;1903905;74;21185;-84
2022/08/18 04:27:29;;;;;;;4.62;2.87;;;30.70;99.00;;;;;;1912866;75;21631;-84
2022/08/18 04:30:02;;;;;;;4.40;2.75;;;30.90;98.30;;;;;;1915092;73;21146;-84
2022/08/18 04:32:33;;;;;;;8.25;3.00;;;31.00;98.10;;;;;;1927243;74;21139;-84
2022/08/18 04:35:07;;;;;;;5.65;2.70;;;31.10;96.40;;;;;;1921534;73;21123;-83
2022/08/18 04:37:40;;;;;;;7.05;2.40;;;31.00;96.60;;;;;;1920374;73;21080;-84
2022/08/18 04:40:14;;;;;;;6.72;3.05;;;31.00;95.80;;;;;;1915876;75;21135;-83
2022/08/18 04:42:46;;;;;;;6.83;3.00;;;31.00;96.50;;;;;;1900485;75;21133;-83
2022/08/18 04:45:17;;;;;;;6.08;2.70;;;31.00;96.90;;;;;;1922258;73;21058;-83
2022/08/18 04:47:49;;;;;;;4.47;2.40;;;31.10;96.30;;;;;;1923124;74;21167;-84
2022/08/18 04:50:23;;;;;;;6.80;2.50;;;31.10;96.40;;;;;;1934945;74;21018;-83
2022/08/18 04:55:25;;;;;;;6.03;3.05;;;31.30;95.90;;;;;;1958664;72;21139;-84
2022/08/18 04:57:58;;;;;;;7.05;2.95;;;31.40;96.30;;;;;;1947478;74;21602;-83
2022/08/18 05:00:32;;;;;;;5.42;2.60;;;31.60;95.80;;;;;;1947698;73;21100;-83
2022/08/18 05:03:08;;;;;;;6.97;2.45;;;31.70;94.80;;;;;;1949422;73;21221;-83
2022/08/18 05:05:53;;;;;;;8.25;2.92;;;31.70;95.00;;;;;;1867217;76;21133;-83
2022/08/18 05:08:24;;;;;;;5.80;2.75;;;31.70;95.80;;;;;;1875445;76;21064;-83
2022/08/18 05:10:58;;;;;;;7.35;3.12;;;31.70;95.60;;;;;;1852799;76;21171;-83
2022/08/18 05:13:31;;;;;;;6.53;2.95;;;31.70;94.90;;;;;;1845972;76;21147;-83
2022/08/18 05:16:02;;;;;;;5.70;2.65;;;31.70;95.40;;;;;;1854594;76;21134;-83
2022/08/18 05:18:39;;;;;;;5.37;2.70;;;31.70;95.50;;;;;;1846971;77;21236;-84
2022/08/18 05:21:12;;;;;;;7.03;2.75;;;31.80;95.30;;;;;;1850252;76;21518;-84
2022/08/18 05:23:49;;;;;;;6.20;2.37;;;31.70;95.30;;;;;;1855409;76;21644;-84
2022/08/18 05:26:23;;;;;;;6.72;3.05;;;31.70;94.70;;;;;;1865073;76;21119;-84
2022/08/18 05:28:54;;;;;;;7.85;2.75;;;31.80;94.50;;;;;;1872208;75;21194;-84
2022/08/18 05:31:28;;;;;;;6.15;2.42;;;31.80;96.20;;;;;;1864883;76;21129;-83
2022/08/18 05:34:02;;;;;;;6.95;2.10;;;31.90;95.30;;;;;;1850297;76;21572;-84
2022/08/18 05:36:38;;;;;;;7.78;2.72;;;31.90;94.80;;;;;;1859131;76;21464;-83
2022/08/18 05:39:13;;;;;;;5.90;2.02;;;32.00;94.90;;;;;;1829608;77;21577;-83
2022/08/18 05:41:46;;;;;;;5.15;2.10;;;32.00;96.20;;;;;;1883302;76;21673;-83
2022/08/18 05:44:21;;;;;;;4.75;2.25;;;32.10;95.40;;;;;;1879398;75;21150;-83
2022/08/18 05:46:57;;;;;;;5.22;2.60;;;32.10;94.50;;;;;;1875195;76;21151;-83
2022/08/18 05:49:28;;;;;;;4.35;2.35;;;32.20;94.40;;;;;;1849654;77;21222;-83
2022/08/18 05:52:04;;;;;;;5.58;2.25;;;32.20;95.90;;;;;;1898236;75;21136;-83
2022/08/18 05:57:12;;;;;;;6.35;2.12;;;32.20;94.30;;;;;;1878222;75;21069;-83
2022/08/18 05:59:45;;;;;;;4.30;2.10;;;32.20;94.10;;;;;;1879369;76;21248;-84
2022/08/18 06:02:29;;;;;;;3.85;2.12;;;32.30;93.60;;;;;;1876196;76;21135;-84
2022/08/18 06:05:02;;;;;;;4.95;2.10;;;32.30;93.60;;;;;;1882371;75;21749;-84
2022/08/18 06:07:34;;;;;;;5.80;1.92;;;32.20;92.80;;;;;;1888656;75;21204;-83
2022/08/18 06:10:07;;;;;;;3.60;1.75;;;32.20;92.50;;;;;;1864790;75;21548;-83
2022/08/18 06:12:41;;;;;;;5.92;2.12;;;32.20;92.20;;;;;;1899771;75;21171;-83
2022/08/18 06:15:14;;;;;;;5.90;2.47;;;32.30;92.90;;;;;;1900953;75;21097;-83
2022/08/18 06:17:46;;;;;;;5.55;2.08;;;32.30;93.20;;;;;;1890677;75;21610;-83
2022/08/18 06:20:18;;;;;;;5.03;2.17;;;32.30;93.90;;;;;;1914764;75;21127;-84
2022/08/18 06:22:52;;;;;;;6.80;2.50;;;32.20;93.80;;;;;;1906952;75;21273;-83
2022/08/18 06:25:26;;;;;;;5.40;2.75;;;32.10;94.10;;;;;;1844359;78;21105;-84
2022/08/18 06:27:58;;;;;;;5.92;2.30;;;32.00;94.30;;;;;;1859246;75;21584;-84
2022/08/18 06:30:31;;;;;;;4.37;2.20;;;32.10;92.90;;;;;;1877127;75;21147;-71
2022/08/18 06:33:05;;;;;;;7.65;2.52;;;32.00;93.50;;;;;;1880039;75;21707;-71
2022/08/18 06:35:39;;;;;;;6.95;2.90;;;32.00;93.20;;;;;;1875605;75;21152;-70
2022/08/18 06:40:46;;;;;;;5.95;2.40;;;32.00;93.80;;;;;;1875570;75;21210;-72
2022/08/18 06:43:18;;;;;;;5.97;2.20;;;32.00;94.60;;;;;;1872905;75;21424;-71
2022/08/18 06:45:51;;;;;;;5.22;2.30;;;32.00;94.30;;;;;;1902778;75;21141;-72
2022/08/18 06:48:24;;;;;;;3.67;2.37;;;31.90;93.80;;;;;;1875786;75;21172;-72
2022/08/18 06:50:59;;;;;;;6.78;2.30;;;32.00;93.70;;;;;;1874423;75;21127;-72
2022/08/18 06:53:32;;;;;;;4.22;2.20;;;32.00;94.10;;;;;;1876644;75;21166;-72
2022/08/18 06:56:05;;;;;;;3.83;2.00;;;32.00;95.40;;;;;;1902911;75;21171;-70
2022/08/18 06:58:38;;;;;;;3.52;2.10;;;32.00;94.80;;;;;;1871154;76;21135;-72
2022/08/18 07:01:09;;;;;;;4.42;2.22;;;31.90;93.90;;;;;;1875796;75;21143;-71
2022/08/18 07:03:44;;;;;;;4.83;2.30;;;31.80;93.30;;;;;;1881087;75;21229;-72
2022/08/18 07:06:19;;;;;;;4.87;1.60;;;31.80;93.90;;;;;;1860632;76;21153;-72
2022/08/18 07:08:52;;;;;;;3.70;1.87;;;31.80;93.80;;;;;;1840542;78;21093;-71
2022/08/18 07:11:26;;;;;;;4.75;1.90;;;31.80;94.10;;;;;;1825085;76;21648;-72
2022/08/18 07:14:00;;;;;;;6.20;1.87;;;31.80;94.30;;;;;;1834929;77;21315;-71
2022/08/18 07:16:34;;;;;;;4.72;2.00;;;31.70;93.80;;;;;;1815555;78;21175;-72
2022/08/18 07:19:07;;;;;;;5.20;2.05;;;31.80;94.20;;;;;;1774605;78;21704;-72
2022/08/18 07:21:40;;;;;;;6.37;1.70;;;31.80;95.30;;;;;;1816821;77;21104;-71
2022/08/18 07:24:13;;;;;;;3.25;1.50;;;31.80;93.90;;;;;;1844867;76;21128;-71
2022/08/18 07:26:48;;;;;;;8.28;2.08;;;31.70;94.40;;;;;;1818174;77;21171;-71
2022/08/18 07:29:19;;;;;;;4.15;1.52;;;31.80;94.80;;;;;;1839568;77;21196;-71
2022/08/18 07:31:53;;;;;;;4.85;1.70;;;31.70;94.50;;;;;;1835438;76;21119;-71
2022/08/18 07:34:25;;;;;;;3.75;1.85;;;31.70;94.20;;;;;;1838942;76;21134;-72
2022/08/18 07:36:58;;;;;;;3.58;2.05;;;31.80;93.80;;;;;;1825571;77;21112;-71
2022/08/18 07:39:32;;;;;;;4.97;2.05;;;31.80;93.80;;;;;;1841246;76;21634;-72
2022/08/18 07:42:03;;;;;;;5.55;1.70;;;31.90;94.80;;;;;;1838779;76;21111;-72
2022/08/18 07:44:36;;;;;;;25.25;5.97;;;31.90;93.80;;;;;;1837929;77;21610;-72
2022/08/18 07:47:10;;;;;;;4.90;2.15;;;32.00;92.30;;;;;;1843068;77;21617;-71
2022/08/18 07:49:43;;;;;;;5.62;2.40;;;31.90;92.90;;;;;;1842713;76;21198;-71
2022/08/18 07:52:18;;;;;;;14.83;3.15;;;32.00;93.90;;;;;;1828381;77;21205;-72
2022/08/18 07:54:52;;;;;;;6.22;2.20;;;31.90;94.40;;;;;;1848785;77;21154;-72
2022/08/18 07:57:26;;;;;;;4.62;1.80;;;31.80;93.60;;;;;;1849065;76;21865;-71
2022/08/18 07:59:58;;;;;;;5.40;3.27;;;31.80;93.70;;;;;;1839650;77;21232;-72
2022/08/18 08:02:31;;;;;;;6.17;2.40;;;31.70;93.60;;;;;;1850831;77;21098;-71
2022/08/18 08:05:04;;;;;;;7.60;3.33;;;31.60;93.90;;;;;;1838623;77;21951;-71
2022/08/18 08:07:39;;;;;;;35.85;7.75;;;31.70;94.30;;;;;;1876416;75;21151;-71
2022/08/18 08:10:10;;;;;;;8.35;3.98;;;31.70;94.00;;;;;;1876586;75;21626;-71
2022/08/18 08:12:42;;;;;;;8.50;3.80;;;31.80;93.50;;;;;;1875878;76;21234;-71
2022/08/18 08:15:16;;;;;;;7.83;3.83;;;31.80;93.00;;;;;;1877491;75;21188;-72
2022/08/18 08:17:52;;;;;;;4.75;2.80;;;32.00;93.00;;;;;;1871404;75;22042;-71
2022/08/18 08:20:25;;;;;;;6.95;3.67;;;32.00;93.10;;;;;;1867569;76;21174;-71
2022/08/18 08:23:00;;;;;;;8.98;5.03;;;32.10;93.30;;;;;;1866595;75;21146;-71
2022/08/18 08:25:32;;;;;;;3.37;2.25;;;32.10;92.60;;;;;;1878234;75;21633;-71
2022/08/18 08:28:09;;;;;;;11.50;7.17;;;32.10;92.70;;;;;;1870820;76;21123;-71
2022/08/18 08:30:42;;;;;;;6.62;2.72;;;32.10;92.20;;;;;;1855104;76;21143;-83
2022/08/18 08:33:14;;;;;;;6.58;3.27;;;32.10;93.20;;;;;;1844314;77;21105;-82
2022/08/18 08:35:52;;;;;;;5.50;2.20;;;32.10;92.70;;;;;;1851246;76;21150;-83
2022/08/18 08:38:24;;;;;;;6.05;2.15;;;32.10;92.40;;;;;;1847812;77;21634;-83
2022/08/18 08:40:59;;;;;;;7.17;2.00;;;32.10;92.20;;;;;;1847788;76;21122;-84
2022/08/18 08:43:32;;;;;;;3.95;1.85;;;32.10;91.90;;;;;;1877067;76;21218;-82
2022/08/18 08:46:07;;;;;;;4.78;2.08;;;32.20;92.70;;;;;;1872897;76;21122;-83
2022/08/18 08:48:40;;;;;;;6.20;2.12;;;32.20;93.10;;;;;;1869541;76;21180;-86
2022/08/18 08:51:15;;;;;;;5.55;1.98;;;32.20;93.50;;;;;;1813460;77;21157;-87
2022/08/18 08:53:51;;;;;;;4.37;2.00;;;32.20;93.30;;;;;;1848553;76;21135;-87
2022/08/18 08:56:22;;;;;;;;;;;32.10;94.10;;;;;;1819565;77;21248;-88
2022/08/18 08:58:55;;;;;;;3.65;1.92;;;32.00;94.80;;;;;;1873610;76;20223;-87
2022/08/18 09:01:28;;;;;;;5.25;1.77;;;32.00;92.90;;;;;;1888960;75;21135;-87
2022/08/18 09:04:06;;;;;;;4.15;2.20;;;31.90;93.20;;;;;;1855355;76;21134;-86
2022/08/18 09:06:39;;;;;;;5.78;2.08;;;31.90;93.50;;;;;;1840447;77;21579;-88
2022/08/18 09:09:12;;;;;;;6.62;2.50;;;31.90;94.30;;;;;;1843018;76;21285;-87
2022/08/18 09:11:48;;;;;;;7.40;2.40;;;31.80;94.30;;;;;;1843700;76;21458;-87
2022/08/18 09:14:22;;;;;;;7.08;2.37;;;31.80;94.90;;;;;;1797361;79;21134;-86
2022/08/18 09:17:01;;;;;;;5.78;2.33;;;31.80;95.10;;;;;;1844458;76;21638;-87
2022/08/18 09:19:40;;;;;;;6.25;2.15;;;31.70;95.60;;;;;;1828230;77;21362;-86
2022/08/18 09:25:27;;;;;;;7.00;2.30;;;31.60;94.90;;;;;;1729226;80;21230;-88
2022/08/18 09:27:59;;;;;;;;;;;31.60;95.80;;;;;;1789056;79;21119;-86
2022/08/18 09:30:33;;;;;;;4.10;2.30;;;31.60;96.80;;;;;;1783743;79;20141;-85
2022/08/18 09:33:32;;;;;;;5.05;1.82;;;31.60;96.10;;;;;;1787186;79;21111;-87
2022/08/18 09:36:15;;;;;;;3.98;2.08;;;31.60;94.70;;;;;;1779063;79;21577;-87
2022/08/18 09:41:31;;;;;;;7.17;2.15;;;31.50;94.90;;;;;;1779806;79;21149;-85
2022/08/18 09:46:34;;;;;;;6.90;2.20;;;31.40;94.70;;;;;;1756821;80;21635;-87
2022/08/18 09:49:12;;;;;;;4.75;1.85;;;31.40;94.90;;;;;;1746844;81;21214;-85
2022/08/18 09:51:45;;;;;;;5.42;1.77;;;31.30;94.60;;;;;;1780131;80;21177;-86
2022/08/18 09:54:19;;;;;;;5.42;2.15;;;31.30;94.80;;;;;;1774136;79;21553;-87
2022/08/18 09:57:05;;;;;;;3.98;2.00;;;31.30;94.30;;;;;;1795040;79;21104;-86
2022/08/18 09:59:50;;;;;;;6.85;2.58;;;31.20;95.10;;;;;;1782679;79;21191;-87
2022/08/18 10:02:22;;;;;;;8.05;2.42;;;31.20;94.70;;;;;;1796519;77;21149;-86
2022/08/18 10:04:55;;;;;;;3.75;2.08;;;31.20;95.60;;;;;;1801380;78;21149;-86
2022/08/18 10:07:34;;;;;;;5.20;2.30;;;31.20;94.70;;;;;;1844433;76;21294;-85
2022/08/18 10:10:09;;;;;;;5.95;2.05;;;31.30;94.20;;;;;;1810958;79;21171;-85
2022/08/18 10:13:03;;;;;;;3.72;2.15;;;31.30;94.80;;;;;;1811113;78;21597;-87
2022/08/18 10:15:31;;;;;;;6.08;2.40;;;31.30;94.40;;;;;;1820524;78;21619;-86
2022/08/18 10:18:14;;;;;;;4.85;2.10;;;31.30;94.50;;;;;;1802146;78;21179;-85
2022/08/18 10:21:05;;;;;;;4.58;1.90;;;31.30;94.50;;;;;;1853510;76;21108;-86
2022/08/18 10:23:44;;;;;;;8.10;2.52;;;31.30;94.20;;;;;;1808509;77;21104;-85
2022/08/18 10:27:01;;;;;;;4.42;2.30;;;31.20;94.30;;;;;;1819931;77;21178;-85
2022/08/18 10:29:37;;;;;;;5.53;2.45;;;31.20;94.30;;;;;;1818260;77;21603;-84
2022/08/18 10:32:15;;;;;;;6.80;2.50;;;31.20;94.70;;;;;;1819786;78;21681;-86
2022/08/18 10:34:48;;;;;;;6.67;2.80;;;31.10;94.60;;;;;;1815689;77;21219;-85
2022/08/18 10:37:25;;;;;;;4.85;1.98;;;31.10;94.60;;;;;;1823717;78;21111;-86
2022/08/18 10:39:59;;;;;;;3.85;1.80;;;31.10;95.00;;;;;;1812572;78;21622;-85
2022/08/18 10:42:51;;;;;;;6.70;2.50;;;31.10;95.00;;;;;;1776309;78;21138;-85
2022/08/18 10:45:24;;;;;;;4.85;2.17;;;31.10;94.80;;;;;;1842594;77;21116;-85
2022/08/18 10:47:58;;;;;;;7.53;2.27;;;31.00;94.70;;;;;;1844170;77;21089;-87
2022/08/18 10:50:34;;;;;;;5.40;2.35;;;31.00;95.40;;;;;;1844749;76;21088;-86
2022/08/18 10:53:12;;;;;;;6.95;2.42;;;31.00;95.00;;;;;;1838556;76;21123;-86
2022/08/18 10:55:45;;;;;;;7.42;2.08;;;30.90;95.10;;;;;;1836530;76;21337;-85
2022/08/18 10:58:21;;;;;;;6.58;2.67;;;30.90;94.90;;;;;;1819706;77;21262;-84
2022/08/18 11:00:53;;;;;;;7.53;2.47;;;31.00;94.80;;;;;;1823247;76;21155;-85
2022/08/18 11:03:27;;;;;;;5.90;2.15;;;30.90;94.70;;;;;;1842221;76;21270;-85
2022/08/18 11:06:14;;;;;;;4.65;2.30;;;30.90;94.80;;;;;;1836211;76;21133;-86
2022/08/18 11:08:49;;;;;;;6.72;2.50;;;30.90;94.70;;;;;;1810987;77;21571;-86
2022/08/18 11:11:25;;;;;;;8.00;2.72;;;30.90;94.70;;;;;;1824109;77;21336;-86
2022/08/18 11:14:00;;;;;;;7.33;1.98;;;30.80;94.80;;;;;;1825647;78;21170;-86
2022/08/18 11:16:36;;;;;;;5.53;2.67;;;30.80;94.80;;;;;;1834042;77;21084;-86
2022/08/18 11:19:13;;;;;;;8.40;2.92;;;30.80;95.00;;;;;;1868471;76;21131;-86
2022/08/18 11:21:47;;;;;;;8.78;3.12;;;30.80;95.10;;;;;;1881057;76;21161;-85
2022/08/18 11:24:25;;;;;;;6.72;2.60;;;30.80;95.10;;;;;;1869331;75;21197;-84
2022/08/18 11:26:54;;;;;;;;;;;30.80;95.40;;;;;;1873729;75;21131;-86
2022/08/18 11:29:26;;;;;;;11.18;3.40;;;30.80;95.40;;;;;;1879915;75;20187;-86
2022/08/18 11:32:01;;;;;;;8.20;2.52;;;30.70;95.20;;;;;;1885308;75;21154;-85
2022/08/18 11:34:40;;;;;;;8.38;3.25;;;30.70;95.20;;;;;;1885993;75;21112;-86
2022/08/18 11:37:12;;;;;;;8.55;2.52;;;30.70;95.30;;;;;;1829558;77;21186;-88
2022/08/18 11:39:48;;;;;;;4.78;2.70;;;30.70;95.40;;;;;;1874398;75;21632;-85
2022/08/18 11:42:21;;;;;;;6.53;2.33;;;30.60;95.40;;;;;;1863761;75;21163;-88
2022/08/18 11:44:56;;;;;;;6.70;2.70;;;30.60;95.50;;;;;;1874232;75;21157;-85
2022/08/18 11:47:27;;;;;;;7.45;2.67;;;30.60;95.60;;;;;;1878174;75;21123;-86
2022/08/18 11:50:01;;;;;;;5.53;2.80;;;30.60;95.70;;;;;;1871176;76;21227;-85
2022/08/18 11:52:33;;;;;;;7.85;2.47;;;30.60;95.60;;;;;;1877095;76;21552;-85
2022/08/18 11:55:07;;;;;;;9.68;3.35;;;30.60;95.70;;;;;;1844692;76;21591;-85
2022/08/18 11:57:43;;;;;;;6.85;2.62;;;30.60;95.80;;;;;;1814550;78;21158;-85
2022/08/18 12:00:17;;;;;;;8.38;3.05;;;30.50;95.70;;;;;;1816449;78;21121;-85
2022/08/18 12:02:51;;;;;;;10.20;3.15;;;30.50;95.30;;;;;;1816431;79;21089;-85
2022/08/18 12:05:22;;;;;;;7.25;2.90;;;30.50;95.50;;;;;;1847029;75;21522;-86
2022/08/18 12:07:54;;;;;;;6.62;3.30;;;30.50;95.60;;;;;;1855514;76;21678;-84
2022/08/18 12:10:28;;;;;;;6.35;2.95;;;30.40;95.30;;;;;;1826250;77;21163;-85
2022/08/18 12:13:00;;;;;;;13.78;3.30;;;30.40;95.40;;;;;;1816060;77;21183;-84
2022/08/18 12:15:34;;;;;;;8.13;3.47;;;30.40;95.30;;;;;;1826382;77;21164;-86
2022/08/18 12:18:19;;;;;;;8.33;3.15;;;30.40;95.40;;;;;;1862791;75;21069;-85
2022/08/18 12:20:52;;;;;;;8.93;3.08;;;30.40;95.50;;;;;;1873971;75;21111;-85
2022/08/18 12:23:41;;;;;;;8.03;2.90;;;30.40;95.60;;;;;;1866682;75;21099;-86
2022/08/18 12:26:12;;;;;;;10.32;3.35;;;30.40;95.30;;;;;;1871006;74;21126;-85
2022/08/18 12:28:48;;;;;;;8.73;3.00;;;30.40;95.10;;;;;;1884132;75;21064;-87
2022/08/18 12:31:25;;;;;;;10.10;3.37;;;30.40;95.20;;;;;;1880340;75;21142;-87
2022/08/18 12:33:58;;;;;;;9.30;3.83;;;30.40;95.40;;;;;;1883648;75;21127;-87
2022/08/18 12:36:52;;;;;;;6.80;3.27;;;30.40;95.40;;;;;;1892191;75;21116;-87
2022/08/18 12:39:47;;;;;;;;;;;;;;;;;;;;;
2022/08/18 12:42:04;;;;;;;10.48;3.00;;;30.40;95.60;;;;;;1877194;75;21169;-87
2022/08/18 12:44:40;;;;;;;11.68;3.72;;;30.40;95.70;;;;;;1884952;75;21179;-87
2022/08/18 12:47:13;;;;;;;12.07;3.62;;;30.40;95.90;;;;;;1892743;75;21146;-87
2022/08/18 12:49:48;;;;;;;8.35;3.95;;;30.40;96.10;;;;;;1886829;75;21216;-87
2022/08/18 12:52:22;;;;;;;8.88;3.42;;;30.30;96.10;;;;;;1883256;75;21174;-87
2022/08/18 12:54:53;;;;;;;8.38;3.55;;;30.30;96.10;;;;;;1883774;75;21568;-87
2022/08/18 12:57:31;;;;;;;10.38;3.62;;;30.30;96.20;;;;;;1884118;75;21879;-87
2022/08/18 13:00:06;;;;;;;7.62;4.08;;;30.20;96.20;;;;;;1886307;75;21202;-86
2022/08/18 13:02:38;;;;;;;8.43;3.90;;;30.20;96.20;;;;;;1877482;75;21171;-86
2022/08/18 13:05:10;;;;;;;7.97;3.47;;;30.10;96.30;;;;;;1828981;78;21143;-87
2022/08/18 13:07:42;;;;;;;10.05;3.10;;;30.10;96.30;;;;;;1879980;75;21302;-87
2022/08/18 13:10:15;;;;;;;6.37;2.92;;;30.10;96.20;;;;;;1867757;74;21147;-86
2022/08/18 13:12:48;;;;;;;9.05;3.40;;;30.00;96.10;;;;;;1862510;75;21150;-86
2022/08/18 13:15:19;;;;;;;12.05;3.55;;;30.00;96.10;;;;;;1851487;76;21227;-87
2022/08/18 13:17:52;;;;;;;10.35;3.40;;;30.00;96.20;;;;;;1830392;78;21141;-87
2022/08/18 13:20:24;;;;;;;10.55;3.75;;;30.00;96.20;;;;;;1805381;78;21653;-86
2022/08/18 13:22:55;;;;;;;8.53;3.62;;;30.00;96.20;;;;;;1847194;76;21555;-86
2022/08/18 13:25:30;;;;;;;9.60;3.67;;;30.00;96.20;;;;;;1799160;79;21535;-87
2022/08/18 13:28:03;;;;;;;11.00;3.67;;;30.00;96.50;;;;;;1827121;77;21135;-87
2022/08/18 13:30:34;;;;;;;11.28;4.28;;;30.00;96.70;;;;;;1863476;77;22095;-87
2022/08/18 13:33:10;;;;;;;9.50;4.08;;;29.90;96.90;;;;;;1847032;78;21139;-88
2022/08/18 13:35:59;;;;;;;12.15;4.03;;;29.90;97.20;;;;;;1874679;75;21639;-88
2022/08/18 13:38:55;;;;;;;9.18;3.92;;;29.90;97.50;;;;;;1880137;75;21107;-85
2022/08/18 13:42:11;;;;;;;;;;;;;;;;;;;;;
2022/08/18 13:44:57;;;;;;;8.05;4.12;;;29.80;97.80;;;;;;1820586;78;21178;-87
2022/08/18 13:47:27;;;;;;;10.20;4.17;;;29.80;98.10;;;;;;1738254;81;21200;-87
2022/08/18 13:50:01;;;;;;;9.78;5.00;;;29.80;98.20;;;;;;1866178;76;21174;-85